• Join FlightAware (Why Join?)
  • Login
  • US Flag 
10:50AM EDT


 

Airport Tracker/Info


-or-


 

Live Flight TrackerFlight Track Log ✈ N747NA ✈ 24-Jul-2013 ✈ NZCH / CHC - NZCH / CHC

Flight Track Log - Related Links

Times and Time Zones

All times are in EDT time to prevent confusion due to time zone crossing. See the N747NA flight status page for this flight to view local times or setup timezone preferences in your user account.

Time Position Orientation Groundspeed Altitude Reporting Facility
EDT Latitude Longitude Course Direction KTS MPH feet Rate Location/Type
01:12AM -43.4833 172.5500 26° Northeast 121 139  Level New Zealand
01:13AM -43.4333 172.5833 26° Northeast 214 246  Level New Zealand
01:14AM -43.3833 172.6500 44° Northeast 275 316  Level New Zealand
01:15AM -43.3167 172.7333 42° Northeast 308 354  Level New Zealand
01:16AM -43.2333 172.8167 36° Northeast 330 380  Level New Zealand
01:17AM -43.1667 172.9000 42° Northeast 329 379  Level New Zealand
01:18AM -43.0833 172.9833 36° Northeast 371 427  Level New Zealand
01:19AM -43.0000 173.0833 41° Northeast 417 480  Level New Zealand
01:20AM -42.9000 173.1833 36° Northeast 401 461  Level New Zealand
01:21AM -42.8000 173.2833 36° Northeast 424 488  Level New Zealand
01:22AM -42.7000 173.4000 41° Northeast 443 510  Level New Zealand
01:23AM -42.6000 173.5167 41° Northeast 462 532  Level New Zealand
01:24AM -42.5000 173.6333 41° Northeast 472 543  Level New Zealand
01:25AM -42.3833 173.7333 32° Northeast 473 544  Level New Zealand
01:26AM -42.2833 173.8500 41° Northeast 478 550  Level New Zealand
01:27AM -42.1667 173.9500 32° Northeast 485 558  Level New Zealand
01:28AM -42.0500 174.0833 40° Northeast 497 572  Level New Zealand
01:29AM -41.9500 174.2000 41° Northeast 500 575  Level New Zealand
01:30AM -41.8500 174.3333 45° Northeast 502 578  Level New Zealand
01:31AM -41.7333 174.4833 44° Northeast 514 592  Level New Zealand
01:32AM -41.6167 174.6167 41° Northeast 511 588  Level New Zealand
01:34AM -41.5167 174.7333 41° Northeast 508 585  Level New Zealand
01:35AM -41.3833 174.7667 11° North 440 506  Level New Zealand
01:36AM -41.2667 174.6833 332° Northwest 431 496  Level New Zealand
01:37AM -41.1667 174.5833 323° Northwest 418 481  Level New Zealand
01:38AM -41.1000 174.4667 307° West 406 467  Level New Zealand
01:39AM -41.0167 174.3500 313° West 410 472  Level New Zealand
01:40AM -40.9500 174.2333 307° West 404 465  Level New Zealand
01:41AM -40.8667 174.1167 313° West 403 464  Level New Zealand
01:42AM -40.7833 174.0000 313° West 399 459  Level New Zealand
01:43AM -40.7167 173.8833 307° West 407 468  Level New Zealand
01:44AM -40.6333 173.7833 318° Northwest 411 473  Level New Zealand
01:45AM -40.5500 173.6667 313° West 418 481  Level New Zealand
01:46AM -40.4833 173.5333 303° West 411 473  Level New Zealand
01:47AM -40.5167 173.3833 254° West 462 532  Level New Zealand
01:48AM -40.6000 173.2500 231° Southwest 469 540  Level New Zealand
01:49AM -40.7000 173.1167 225° Southwest 479 551  Level New Zealand
01:50AM -40.7833 172.9833 230° Southwest 479 551  Level New Zealand
01:51AM -40.8667 172.8500 230° Southwest 475 547  Level New Zealand
01:52AM -40.9667 172.7000 229° Southwest 474 545  Level New Zealand
01:53AM -41.0500 172.5667 230° Southwest 469 540  Level New Zealand
01:54AM -41.1333 172.4333 230° Southwest 467 537  Level New Zealand
01:55AM -41.2167 172.3000 230° Southwest 465 535  Level New Zealand
01:56AM -41.3000 172.1667 230° Southwest 464 534  Level New Zealand
01:57AM -41.3833 172.0333 230° Southwest 464 534  Level New Zealand
01:58AM -41.4667 171.9000 230° Southwest 463 533  Level New Zealand
01:59AM -41.5667 171.7500 228° Southwest 464 534  Level New Zealand
02:00AM -41.6500 171.6167 230° Southwest 463 533  Level New Zealand
02:01AM -41.7167 171.4833 236° Southwest 466 536  Level New Zealand
02:02AM -41.8167 171.3333 228° Southwest 464 534  Level New Zealand
02:04AM -41.9000 171.2000 230° Southwest 464 534  Level New Zealand
02:05AM -41.9833 171.0500 233° Southwest 465 535  Level New Zealand
02:06AM -42.0500 170.9000 239° Southwest 467 537  Level New Zealand
02:07AM -42.1333 170.7667 230° Southwest 468 539  Level New Zealand
02:08AM -42.2167 170.6167 233° Southwest 468 539  Level New Zealand
02:09AM -42.3000 170.4667 233° Southwest 472 543  Level New Zealand
02:10AM -42.3833 170.3167 233° Southwest 472 543  Level New Zealand
02:11AM -42.4667 170.1667 233° Southwest 472 543  Level New Zealand
02:12AM -42.5500 170.0167 233° Southwest 470 541  Level New Zealand
02:13AM -42.6333 169.8667 233° Southwest 473 544  Level New Zealand
02:14AM -42.7167 169.7167 233° Southwest 466 536  Level New Zealand
02:15AM -42.7833 169.5667 239° Southwest 471 542  Level New Zealand
02:16AM -42.8667 169.4167 233° Southwest 478 550  Level New Zealand
02:17AM -42.9500 169.2667 233° Southwest 450 518  Level New Zealand
02:18AM -43.0833 169.2333 190° South 494 568  Level New Zealand
02:19AM -43.2167 169.3500 147° Southeast 547 629  Level New Zealand
02:20AM -43.3333 169.4833 140° Southeast 478 550  Level New Zealand
02:21AM -43.4667 169.5000 175° South 486 559  Level New Zealand
02:22AM -43.6000 169.4333 200° South 485 558  Level New Zealand
02:23AM -43.7333 169.3667 200° South 487 560  Level New Zealand
02:24AM -43.8833 169.3333 189° South 510 587  Level New Zealand
02:26AM -44.0333 169.3167 185° South 509 586  Level New Zealand
02:27AM -44.1667 169.2833 190° South 505 581  Level New Zealand
02:28AM -44.3167 169.2667 185° South 504 580  Level New Zealand
02:29AM -44.4667 169.2333 189° South 507 583  Level New Zealand
02:30AM -44.6167 169.2167 185° South 514 592  Level New Zealand
02:31AM -44.7500 169.1833 190° South 497 572  Level New Zealand
02:32AM -44.9000 169.1667 185° South 511 588  Level New Zealand
02:33AM -45.0500 169.1500 184° South 503 579  Level New Zealand
02:34AM -45.2000 169.1167 189° South 490 564  Level New Zealand
02:35AM -45.3333 169.1000 185° South 495 570  Level New Zealand
02:36AM -45.4833 169.0833 184° South 496 571  Level New Zealand
02:37AM -45.6167 169.0833 180° South 491 565  Level New Zealand
02:38AM -45.7667 169.0667 184° South 493 567  Level New Zealand
02:39AM -45.9167 169.0500 184° South 490 564  Level New Zealand
02:40AM -46.0500 169.0500 180° South 493 567  Level New Zealand
02:41AM -46.2000 169.0500 180° South 492 566  Level New Zealand
02:42AM -46.3500 169.0333 184° South 494 568  Level New Zealand
02:43AM -46.4833 169.0333 180° South 491 565  Level New Zealand
02:44AM -46.6333 169.0333 180° South 491 565  Level New Zealand
02:45AM -46.7667 169.0333 180° South 499 574  Level New Zealand
02:46AM -46.9167 169.0333 180° South 496 571  Level New Zealand
02:47AM -47.0500 169.0333 180° South 496 571  Level New Zealand
02:51AM -47.4000 169.3667 147° Southeast 496 571  Level New Zealand
02:53AM -47.8667 169.3500 181° South 478 550  Level New Zealand
02:55AM -48.1333 169.3500 180° South 478 550  Level New Zealand
02:57AM -48.4000 169.3333 182° South 478 550  Level New Zealand
02:59AM -48.6667 169.4500 164° South 515 593  Level New Zealand
03:01AM -48.9167 169.6333 154° Southeast 515 593  Level New Zealand
03:03AM -49.2667 169.8667 157° South 489 563  Level New Zealand
03:05AM -49.5167 170.0500 155° Southeast 489 563  Level New Zealand
03:07AM -49.7667 170.2333 155° Southeast 489 563  Level New Zealand
03:09AM -50.0000 170.4000 155° Southeast 489 563  Level New Zealand
03:11AM -50.2500 170.5833 155° Southeast 489 563  Level New Zealand
03:13AM -50.5000 170.7667 155° Southeast 489 563  Level New Zealand
03:15AM -50.7500 170.9500 155° Southeast 489 563  Level New Zealand
03:17AM -50.9833 171.1500 152° Southeast 489 563  Level New Zealand
03:19AM -51.2333 171.3333 155° Southeast 489 563  Level New Zealand
03:21AM -51.4833 171.5333 154° Southeast 489 563  Level New Zealand
03:23AM -51.7167 171.7167 154° Southeast 489 563  Level New Zealand
03:25AM -51.9667 171.9167 154° Southeast 489 563  Level New Zealand
03:27AM -52.2000 172.1167 152° Southeast 489 563  Level New Zealand
03:29AM -52.4500 172.3167 154° Southeast 489 563  Level New Zealand
03:31AM -52.6833 172.5167 153° Southeast 489 563  Level New Zealand
03:33AM -52.9333 172.7167 154° Southeast 489 563  Level New Zealand
03:35AM -53.1667 172.9333 151° Southeast 489 563  Level New Zealand
03:37AM -53.4167 173.1333 155° Southeast 489 563  Level New Zealand
03:39AM -53.6500 173.3500 151° Southeast 489 563  Level New Zealand
03:41AM -53.9000 173.5667 153° Southeast 489 563  Level New Zealand
03:43AM -54.1333 173.7833 151° Southeast 489 563  Level New Zealand
03:45AM -54.3667 174.0000 152° Southeast 489 563  Level New Zealand
03:47AM -54.6167 174.2167 153° Southeast 489 563  Level New Zealand
03:49AM -54.8500 174.4333 152° Southeast 489 563  Level New Zealand
03:51AM -55.0833 174.6667 150° Southeast 489 563  Level New Zealand
03:53AM -55.3333 174.9000 152° Southeast 489 563  Level New Zealand
03:55AM -55.5667 175.1333 151° Southeast 489 563  Level New Zealand
03:57AM -55.8000 175.3667 151° Southeast 489 563  Level New Zealand
03:59AM -56.0333 175.6000 151° Southeast 489 563  Level New Zealand
04:01AM -56.2833 175.8333 153° Southeast 489 563  Level New Zealand
04:03AM -56.7833 176.8333 133° Southeast 555 639  Level New Zealand
04:05AM -56.9833 177.2667 130° Southeast 555 639  Level New Zealand
04:07AM -57.1833 177.7000 131° Southeast 555 639  Level New Zealand
04:09AM -57.3667 178.1500 127° Southeast 555 639  Level New Zealand
04:11AM -57.5667 178.5833 131° Southeast 555 639  Level New Zealand
04:13AM -57.7500 179.0333 127° Southeast 555 639  Level New Zealand
04:15AM -57.9500 179.5000 129° Southeast 555 639  Level New Zealand
04:17AM -58.1333 179.9500 128° Southeast 555 639  Level New Zealand
04:19AM -58.3167 -179.5833 127° Southeast 555 639  Level New Zealand
04:21AM -58.5000 -179.1000 126° Southeast 555 639  Level New Zealand
04:23AM -58.6833 -178.6333 127° Southeast 555 639  Level New Zealand
04:25AM -58.8667 -178.1500 126° Southeast 555 639  Level New Zealand
04:27AM -59.0500 -177.6667 127° Southeast 555 639  Level New Zealand
04:29AM -59.2167 -177.1833 124° Southeast 555 639  Level New Zealand
04:31AM -59.4000 -176.6833 126° Southeast 555 639  Level New Zealand
04:33AM -59.5667 -176.1833 123° Southeast 555 639  Level New Zealand
04:35AM -59.7500 -175.6833 126° Southeast 555 639  Level New Zealand
04:37AM -59.9167 -175.1667 123° Southeast 555 639  Level New Zealand
04:39AM -60.0833 -174.6500 123° Southeast 555 639  Level New Zealand
04:41AM -60.2500 -174.1333 123° Southeast 555 639  Level New Zealand
04:43AM -60.4000 -173.6000 120° Southeast 555 639  Level New Zealand
04:45AM -60.5500 -173.0667 120° Southeast 567 652  Level New Zealand
04:47AM -60.6167 -172.4333 102° East 567 652  Level New Zealand
04:49AM -60.6833 -171.8333 103° East 554 638  Level New Zealand
04:51AM -60.7500 -171.2333 103° East 554 638  Level New Zealand
04:53AM -60.8000 -170.6167 100° East 554 638  Level New Zealand
04:55AM -60.8500 -169.9833 99° East 554 638  Level New Zealand
04:57AM -60.9000 -169.3667 100° East 554 638  Level New Zealand
04:59AM -60.9500 -168.7500 100° East 554 638  Level New Zealand
05:01AM -61.0000 -168.1167 100° East 554 638  Level New Zealand
05:03AM -61.0500 -167.4833 100° East 554 638  Level New Zealand
05:05AM -61.0833 -166.8667 97° East 554 638  Level New Zealand
05:07AM -61.1167 -166.2333 96° East 554 638  Level New Zealand
05:09AM -61.1500 -165.6000 96° East 554 638  Level New Zealand
05:11AM -61.1833 -164.9667 97° East 554 638  Level New Zealand
05:13AM -61.2167 -164.3333 97° East 554 638  Level New Zealand
05:15AM -61.2333 -163.7000 93° East 554 638  Level New Zealand
05:17AM -61.2500 -163.0667 93° East 554 638  Level New Zealand
05:19AM -61.2833 -162.4333 97° East 554 638  Level New Zealand
05:21AM -61.2000 -162.4000 11° North 390 449  Level New Zealand
05:23AM -60.9833 -162.8833 313° West 506 582  Level New Zealand
05:25AM -60.8000 -163.3167 311° West 506 582  Level New Zealand
05:27AM -60.6000 -163.7333 314° West 506 582  Level New Zealand
05:29AM -60.4167 -164.1667 310° West 506 582  Level New Zealand
05:31AM -60.2167 -164.5667 315° West 506 582  Level New Zealand
05:33AM -60.0333 -164.9833 311° West 506 582  Level New Zealand
05:35AM -59.8333 -165.3833 315° West 506 582  Level New Zealand
05:37AM -59.6333 -165.7833 315° West 506 582  Level New Zealand
05:39AM -59.4500 -166.1833 312° West 506 582  Level New Zealand
05:41AM -59.2500 -166.5667 315° West 506 582  Level New Zealand
05:43AM -59.0500 -166.9667 314° West 506 582  Level New Zealand
05:45AM -58.8500 -167.3500 315° West 506 582  Level New Zealand
05:47AM -58.6500 -167.7167 316° Northwest 506 582  Level New Zealand
05:49AM -58.4500 -168.1000 315° West 506 582  Level New Zealand
05:51AM -59.3833 -166.3167 136° Southeast 323 372  Level New Zealand
05:53AM -59.2500 -166.5667 316° Northwest 323 372  Level New Zealand
05:55AM -59.1167 -166.8167 316° Northwest 323 372  Level New Zealand
05:57AM -59.0000 -167.0667 312° West 323 372  Level New Zealand
05:59AM -58.8667 -167.3000 318° Northwest 323 372  Level New Zealand
06:01AM -58.7333 -167.5500 316° Northwest 323 372  Level New Zealand
06:03AM -58.6167 -167.7833 314° West 323 372  Level New Zealand
06:05AM -58.4833 -168.0333 316° Northwest 323 372  Level New Zealand
06:07AM -58.3500 -168.2833 315° West 391 450  Level New Zealand
06:09AM -58.2500 -168.6500 297° West 391 450  Level New Zealand
06:11AM -58.1167 -169.1333 297° West 367 422  Level New Zealand
06:13AM -58.0167 -169.4667 299° West 367 422  Level New Zealand
06:15AM -57.9167 -169.8000 299° West 367 422  Level New Zealand
06:17AM -57.8167 -170.1333 299° West 367 422  Level New Zealand
06:19AM -57.7167 -170.4667 299° West 367 422  Level New Zealand
06:21AM -57.6167 -170.8000 299° West 367 422  Level New Zealand
06:23AM -57.5167 -171.1333 299° West 367 422  Level New Zealand
06:25AM -57.4167 -171.4500 300° West 367 422  Level New Zealand
06:27AM -57.3167 -171.7833 299° West 367 422  Level New Zealand
06:29AM -57.2167 -172.1000 300° West 367 422  Level New Zealand
06:31AM -57.1000 -172.4333 303° West 367 422  Level New Zealand
06:33AM -57.0000 -172.7500 300° West 367 422  Level New Zealand
06:35AM -56.9000 -173.0667 300° West 367 422  Level New Zealand
06:37AM -56.7833 -173.3833 304° West 367 422  Level New Zealand
06:39AM -56.6833 -173.7000 300° West 367 422  Level New Zealand
06:41AM -56.5667 -174.0167 304° West 367 422  Level New Zealand
06:43AM -56.4667 -174.3167 301° West 367 422  Level New Zealand
06:45AM -56.3500 -174.6333 304° West 367 422  Level New Zealand
06:47AM -56.2333 -174.9333 305° West 367 422  Level New Zealand
06:49AM -56.1167 -175.2500 303° West 367 422  Level New Zealand
06:51AM -56.0167 -175.5500 301° West 367 422  Level New Zealand
06:53AM -55.9000 -175.8500 305° West 367 422  Level New Zealand
06:55AM -55.7833 -176.1500 305° West 367 422  Level New Zealand
06:57AM -55.6667 -176.4500 305° West 367 422  Level New Zealand
06:59AM -55.5500 -176.7500 304° West 367 422  Level New Zealand
07:01AM -55.4333 -177.0500 304° West 367 422  Level New Zealand
07:03AM -55.3167 -177.3333 306° West 367 422  Level New Zealand
07:05AM -55.2000 -177.6333 304° West 367 422  Level New Zealand
07:07AM -55.0833 -177.9167 306° West 367 422  Level New Zealand
07:09AM -54.9667 -178.2000 306° West 367 422  Level New Zealand
07:11AM -54.8500 -178.5167 303° West 442 509  Level New Zealand
07:13AM -54.7500 -178.9000 294° West 442 509  Level New Zealand
07:15AM -54.6333 -179.2833 298° West 442 509  Level New Zealand
07:17AM -54.5167 -179.6500 299° West 442 509  Level New Zealand
07:19AM -54.4000 179.9833 299° West 442 509  Level New Zealand
07:21AM -54.2833 179.6167 298° West 442 509  Level New Zealand
07:23AM -54.1667 179.2333 297° West 442 509  Level New Zealand
07:25AM -54.0500 178.8833 299° West 442 509  Level New Zealand
07:27AM -53.9333 178.5167 298° West 442 509  Level New Zealand
07:29AM -53.8167 178.1500 298° West 442 509  Level New Zealand
07:31AM -53.6833 177.8000 163° South 442 509  Level New Zealand
07:33AM -53.5667 177.4333 298° West 442 509  Level New Zealand
07:35AM -53.4333 177.0833 302° West 442 509  Level New Zealand
07:37AM -53.3167 176.7333 299° West 442 509  Level New Zealand
07:39AM -53.1833 176.3833 302° West 442 509  Level New Zealand
07:41AM -53.0667 176.0333 299° West 442 509  Level New Zealand
07:43AM -52.9333 175.6833 302° West 442 509  Level New Zealand
07:45AM -52.8000 175.3333 302° West 442 509  Level New Zealand
07:47AM -52.6667 175.0000 303° West 442 509  Level New Zealand
07:49AM -52.5500 174.6500 299° West 442 509  Level New Zealand
07:51AM -52.4167 174.3167 303° West 442 509  Level New Zealand
07:53AM -52.2833 173.9833 303° West 442 509  Level New Zealand
07:55AM -52.1500 173.6500 303° West 442 509  Level New Zealand
07:57AM -52.0000 173.3167 306° West 442 509  Level New Zealand
07:59AM -51.8667 172.9833 303° West 442 509  Level New Zealand
08:01AM -51.7333 172.6500 303° West 442 509  Level New Zealand
08:03AM -51.6000 172.3333 304° West 442 509  Level New Zealand
08:05AM -51.4500 172.0000 306° West 442 509  Level New Zealand
08:07AM -51.3167 171.6833 304° West 427 491  Level New Zealand
08:09AM -51.2000 171.3500 299° West 427 491  Level New Zealand
08:11AM -51.0667 171.0333 304° West 427 491  Level New Zealand
08:13AM -50.9500 170.7167 300° West 427 491  Level New Zealand
08:15AM -50.8167 170.4000 304° West 427 491  Level New Zealand
08:17AM -50.6833 170.0833 304° West 427 491  Level New Zealand
08:19AM -50.5667 169.7667 300° West 427 491  Level New Zealand
08:21AM -50.4333 169.4667 305° West 427 491  Level New Zealand
08:23AM -50.3000 169.1500 303° West 427 491  Level New Zealand
08:25AM -50.1667 168.8500 305° West 427 491  Level New Zealand
08:27AM -50.0333 168.5333 303° West 427 491  Level New Zealand
08:29AM -49.9000 168.2333 305° West 427 491  Level New Zealand
08:31AM -49.7667 167.9333 304° West 427 491  Level New Zealand
08:33AM -49.6333 167.6333 304° West 427 491  Level New Zealand
08:35AM -49.5000 167.3333 304° West 427 491  Level New Zealand
08:37AM -49.3667 167.0333 304° West 427 491  Level New Zealand
08:39AM -49.2333 166.7333 304° West 427 491  Level New Zealand
08:41AM -49.0833 166.4333 307° West 427 491  Level New Zealand
08:43AM -48.9500 166.1500 306° West 427 491  Level New Zealand
08:43AM -45.7707 160.5698 78° East 36,000 48,000 Climbing Aus ATC (Calculated)
08:45AM -45.7707 160.5699 79° East  Level Estimated
08:45AM -48.8167 165.8500 79° East 427 491  Level New Zealand
08:46AM -45.7813 160.4896 132° Southeast 36,000 24,240 Climbing Aus ATC (Calculated)
08:47AM -48.6667 165.5667 79° East 427 491 -69,720 Descending New Zealand
08:48AM -45.7912 160.4144 132° Southeast 36,000 22,020 Climbing Aus ATC (Calculated)
08:49AM -48.4167 164.9333 79° East 437 503 -98,220 Descending New Zealand
08:50AM -45.8004 160.3439 132° Southeast 36,000 22,920 Climbing Aus ATC (Calculated)
08:51AM -48.3000 164.6333 79° East 437 503 -83,100 Descending New Zealand
08:51AM -45.8004 160.3439 77° East 36,000 60,000 Climbing Aus ATC (Calculated)
08:53AM -45.8004 160.3440 79° East  Level Estimated
08:53AM -48.1667 164.3167 79° East 437 503  Level New Zealand
08:55AM -48.0333 164.0000 302° West 437 503  Level New Zealand
08:57AM -47.9167 163.7000 300° West 437 503  Level New Zealand
08:59AM -47.7833 163.3833 302° West 437 503  Level New Zealand
09:01AM -47.6500 163.0833 303° West 437 503  Level New Zealand
09:01AM -45.8345 160.0792 80° East 36,000 61,680 Climbing Aus ATC (Calculated)
09:03AM -45.8345 160.0793 80° East  Level Estimated
09:03AM -47.5333 162.7833 80° East 437 503  Level New Zealand
09:05AM -47.4000 162.4833 303° West 437 503  Level New Zealand
09:07AM -47.2667 162.1667 302° West 437 503  Level New Zealand
09:09AM -47.1333 161.8667 303° West 437 503  Level New Zealand
09:10AM -45.8597 159.8805 135° Southeast 36,000 45,900 Climbing Aus ATC (Calculated)
09:11AM -47.0000 161.5833 303° West 437 503 -29,640 Descending New Zealand
09:12AM -45.8691 159.8059 135° Southeast 36,000 45,900 Climbing Aus ATC (Calculated)
09:13AM -46.8667 161.2833 303° West 437 503 -29,640 Descending New Zealand
09:15AM -46.7333 160.9833 303° West 437 503  Level New Zealand
09:17AM -46.6000 160.6833 303° West 437 503  Level New Zealand
09:19AM -46.4667 160.4000 304° West 437 503  Level New Zealand
09:21AM -46.3333 160.1000 303° West 437 503  Level New Zealand
09:23AM -46.1833 159.8167 307° West 437 503  Level New Zealand
09:25AM -45.9175 159.4141 148° Southeast 36,000 20,160 Climbing Aus ATC (Calculated)
09:25AM -46.0500 159.5333 304° West 437 503 -166,200 Descending New Zealand
09:27AM -45.9174 159.4143 80° East  Level Estimated
09:27AM -45.9254 159.3487 309° West 36,000  Level Aus ATC (Calculated)
09:27AM -45.9167 159.3333 80° East 548 631 -154,320 Descending New Zealand
09:29AM -45.9254 159.3489 80° East  Level Estimated
09:29AM -45.7667 159.7000 80° East 548 631  Level New Zealand
09:30AM -45.7145 159.8751 56° Northeast 36,000 45,000 Climbing Aus ATC (Calculated)
09:31AM -45.6167 160.0833 80° East 548 631 -30,000 Descending New Zealand
09:33AM -45.4667 160.4667 61° Northeast 548 631  Level New Zealand
09:35AM -45.3000 160.8333 57° Northeast 548 631  Level New Zealand
09:37AM -45.0500 161.4500 60° Northeast 519 597  Level New Zealand
09:38AM -45.1329 161.2769 58° Northeast 36,000 45,900 Climbing Aus ATC (Calculated)
09:39AM -44.9000 161.8000 60° Northeast 519 597 -29,640 Descending New Zealand
09:39AM -45.0121 161.5594 86° East 36,000 93,900 Climbing Aus ATC (Calculated)
09:41AM -45.0121 161.5596 83° East  Level Estimated
09:41AM -44.7500 162.1500 83° East 519 597  Level New Zealand
09:41AM -44.8381 161.9614 58° Northeast 36,000 37,200 Climbing Aus ATC (Calculated)
09:42AM -44.8099 162.0261 238° Southwest 36,000  Level Aus ATC (Calculated)
09:43AM -44.8381 161.9615 84° East  Level Estimated
09:43AM -44.5833 162.5000 84° East 519 597  Level New Zealand
09:44AM -44.6422 162.4075 56° Northeast 36,000 30,420 Climbing Aus ATC (Calculated)
09:45AM -44.4333 162.8333 84° East 519 597 -44,100 Descending New Zealand
09:45AM -44.5613 162.5897 84° East 36,000 102,840 Climbing Aus ATC (Calculated)
09:47AM -44.5613 162.5899 85° East  Level Estimated
09:47AM -44.4555 162.8262 56° Northeast 36,000  Level Aus ATC (Calculated)
09:47AM -44.2833 163.1833 85° East 519 597 -1,080,000 Descending New Zealand
09:49AM -44.4555 162.8264 86° East  Level Estimated
09:49AM -44.1333 163.5167 86° East 519 597  Level New Zealand
09:51AM -43.9667 163.8667 57° Northeast 519 597  Level New Zealand
09:53AM -43.8167 164.2000 58° Northeast 519 597  Level New Zealand
09:55AM -43.6500 164.5333 55° Northeast 519 597  Level New Zealand
09:57AM -43.5000 164.8667 58° Northeast 519 597  Level New Zealand
09:59AM -43.3333 165.2000 56° Northeast 519 597  Level New Zealand
10:00AM -43.4593 164.9635 56° Northeast 36,000 45,900 Climbing Aus ATC (Calculated)
10:01AM -43.1833 165.5167 56° Northeast 519 597 -29,640 Descending New Zealand
10:01AM -43.3463 165.1964 92° East 36,000 83,040 Climbing Aus ATC (Calculated)
10:03AM -43.3463 165.1965 94° East  Level Estimated
10:03AM -43.0167 165.8500 94° East 519 597  Level New Zealand
10:05AM -42.8500 166.1667 54° Northeast 519 597  Level New Zealand
10:07AM -42.7000 166.5000 59° Northeast 519 597  Level New Zealand
10:09AM -42.5333 166.8167 55° Northeast 519 597  Level New Zealand
10:11AM -42.3667 167.1333 55° Northeast 519 597  Level New Zealand
10:13AM -42.2000 167.4667 56° Northeast 519 597  Level New Zealand
10:15AM -42.0333 167.7833 55° Northeast 519 597  Level New Zealand
10:17AM -41.8667 168.1000 55° Northeast 519 597  Level New Zealand
10:19AM -41.7000 168.4000 53° Northeast 519 597  Level New Zealand
10:21AM -41.5167 168.7167 52° Northeast 519 597  Level New Zealand
10:23AM -41.3500 169.0333 55° Northeast 519 597  Level New Zealand
10:25AM -41.1833 169.3333 54° Northeast 519 597  Level New Zealand
10:27AM -41.0167 169.6333 54° Northeast 519 597  Level New Zealand
10:29AM -41.1000 169.9000 113° Southeast 540 621  Level New Zealand
10:31AM -41.3333 170.1500 141° Southeast 540 621  Level New Zealand